createdAt,value
2018-06-08T00:01:32.056Z,90.00
2018-06-08T00:06:23.872Z,90.40
2018-06-08T00:08:53.148Z,90.67
2018-06-08T00:11:22.594Z,90.24
2018-06-08T00:13:51.861Z,90.13
2018-06-08T00:16:20.985Z,89.67
2018-06-08T00:18:50.244Z,90.20
2018-06-08T00:21:19.569Z,89.90
2018-06-08T00:23:48.896Z,90.71
2018-06-08T00:26:18.253Z,90.30
2018-06-08T00:28:47.533Z,89.74
2018-06-08T00:31:16.716Z,89.71
2018-06-08T00:33:46.024Z,90.15
2018-06-08T00:36:15.404Z,89.65
2018-06-08T00:38:44.680Z,89.31
2018-06-08T00:41:13.899Z,88.96
2018-06-08T00:43:43.192Z,88.42
2018-06-08T00:46:12.505Z,89.14
2018-06-08T00:48:41.884Z,89.33
2018-06-08T00:51:11.058Z,89.54
2018-06-08T00:53:40.376Z,88.72
2018-06-08T00:56:19.543Z,88.40
2018-06-08T00:58:48.782Z,87.94
2018-06-08T01:01:18.179Z,87.31
2018-06-08T01:03:47.528Z,86.91
2018-06-08T01:06:16.925Z,86.37
2018-06-08T01:08:46.265Z,86.47
2018-06-08T01:11:15.524Z,86.56
2018-06-08T01:13:44.976Z,86.46
2018-06-08T01:16:14.167Z,85.73
2018-06-08T01:18:43.393Z,85.49
2018-06-08T01:21:12.620Z,85.58
2018-06-08T01:23:41.935Z,85.09
2018-06-08T01:26:11.337Z,85.97
2018-06-08T01:28:40.697Z,86.18
2018-06-08T01:31:09.908Z,86.14
2018-06-08T01:33:39.139Z,86.55
2018-06-08T01:36:08.510Z,86.23
2018-06-08T01:38:37.832Z,86.03
2018-06-08T01:41:07.100Z,85.04
2018-06-08T01:43:36.301Z,85.56
2018-06-08T01:46:05.576Z,85.47
2018-06-08T01:48:34.704Z,86.33
2018-06-08T01:51:04.056Z,87.84
2018-06-08T01:53:33.228Z,87.73
2018-06-08T01:56:02.552Z,87.46
2018-06-08T01:58:31.780Z,86.49
2018-06-08T02:01:00.932Z,86.11
2018-06-08T02:03:30.233Z,85.17
2018-06-08T02:05:59.317Z,85.00
2018-06-08T02:08:28.621Z,84.59
2018-06-08T02:10:57.948Z,84.82
2018-06-08T02:13:27.096Z,85.27
2018-06-08T02:15:56.392Z,85.20
2018-06-08T02:18:25.343Z,85.29
2018-06-08T02:20:54.582Z,85.24
2018-06-08T02:23:23.929Z,84.57
2018-06-08T02:25:53.144Z,84.82
2018-06-08T02:28:22.507Z,86.91
2018-06-08T02:30:51.728Z,88.16
2018-06-08T02:33:20.952Z,89.18
2018-06-08T02:35:50.289Z,89.05
2018-06-08T02:38:19.451Z,88.41
2018-06-08T02:40:48.780Z,88.18
2018-06-08T02:43:17.916Z,88.02
2018-06-08T02:45:47.123Z,86.34
2018-06-08T02:48:16.423Z,86.08
2018-06-08T02:50:45.638Z,86.25
2018-06-08T02:53:14.703Z,88.65
2018-06-08T02:55:43.672Z,89.83
2018-06-08T02:58:12.600Z,89.56
2018-06-08T03:00:41.864Z,89.78
2018-06-08T03:03:11.096Z,90.00
2018-06-08T03:05:40.412Z,90.08
2018-06-08T03:08:09.632Z,89.99
2018-06-08T03:10:38.969Z,89.72
2018-06-08T03:13:08.252Z,89.26
2018-06-08T03:15:37.501Z,88.76
2018-06-08T03:18:06.852Z,88.94
2018-06-08T03:20:36.048Z,88.17
2018-06-08T03:23:05.324Z,87.61
2018-06-08T03:25:34.569Z,87.58
2018-06-08T03:28:03.604Z,86.60
2018-06-08T03:30:32.905Z,86.84
2018-06-08T03:33:02.069Z,87.09
2018-06-08T03:35:31.353Z,86.40
2018-06-08T03:38:00.684Z,85.92
2018-06-08T03:40:30.005Z,86.18
2018-06-08T03:42:59.319Z,86.51
2018-06-08T03:45:28.609Z,86.60
2018-06-08T03:47:57.908Z,86.90
2018-06-08T03:50:27.129Z,85.50
2018-06-08T03:52:56.455Z,85.72
2018-06-08T03:55:25.656Z,85.41
2018-06-08T03:57:54.937Z,85.32
2018-06-08T04:00:24.165Z,84.71
2018-06-08T04:02:53.388Z,84.33
2018-06-08T04:05:23.093Z,85.37
2018-06-08T04:07:52.388Z,85.18
2018-06-08T04:10:21.794Z,84.63
2018-06-08T04:12:51.054Z,84.66
2018-06-08T04:15:20.344Z,84.16
2018-06-08T04:17:49.608Z,84.82
2018-06-08T04:20:18.880Z,83.39
2018-06-08T04:22:48.213Z,83.44
2018-06-08T04:25:17.452Z,81.76
2018-06-08T04:27:46.780Z,80.99
2018-06-08T04:30:16.072Z,80.50
2018-06-08T04:32:45.402Z,79.86
2018-06-08T04:35:14.767Z,79.58
2018-06-08T04:37:44.105Z,79.20
2018-06-08T04:40:13.224Z,79.12
2018-06-08T04:42:42.443Z,77.69
2018-06-08T04:45:11.777Z,77.96
2018-06-08T04:47:41.105Z,77.87
2018-06-08T04:50:10.232Z,77.58
2018-06-08T04:52:39.454Z,77.37
2018-06-08T04:55:08.712Z,76.38
2018-06-08T04:57:37.961Z,76.33
2018-06-08T05:00:07.260Z,75.49
2018-06-08T05:02:36.596Z,74.50
2018-06-08T05:05:05.864Z,73.55
2018-06-08T05:07:35.126Z,73.52
2018-06-08T05:10:04.464Z,73.39
2018-06-08T05:12:33.725Z,74.14
2018-06-08T05:15:02.803Z,73.58
2018-06-08T05:17:31.737Z,72.30
2018-06-08T05:20:00.912Z,72.41
2018-06-08T05:22:30.096Z,72.52
2018-06-08T05:24:59.347Z,72.44
2018-06-08T05:27:28.529Z,71.03
2018-06-08T05:29:57.796Z,69.67
2018-06-08T05:32:27.016Z,70.17
2018-06-08T05:34:56.388Z,67.80
2018-06-08T05:37:25.446Z,68.30
2018-06-08T05:39:54.836Z,68.61
2018-06-08T05:42:24.064Z,68.35
2018-06-08T05:44:53.084Z,65.96
2018-06-08T05:47:22.169Z,66.04
2018-06-08T05:49:51.537Z,66.44
2018-06-08T05:52:20.961Z,67.09
2018-06-08T05:54:50.103Z,65.18
2018-06-08T05:57:19.032Z,63.77
2018-06-08T05:59:48.185Z,63.75
2018-06-08T06:02:17.493Z,62.69
2018-06-08T06:04:46.905Z,62.20
2018-06-08T06:07:16.074Z,62.68
2018-06-08T06:09:45.228Z,62.57
2018-06-08T06:12:14.387Z,62.13
2018-06-08T06:14:43.661Z,62.58
2018-06-08T06:17:12.971Z,62.31
2018-06-08T06:19:42.211Z,61.91
2018-06-08T06:22:11.520Z,63.57
2018-06-08T06:24:40.552Z,61.76
2018-06-08T06:27:09.544Z,61.78
2018-06-08T06:29:38.544Z,61.10
2018-06-08T06:32:07.824Z,62.27
2018-06-08T06:34:37.153Z,60.56
2018-06-08T06:37:06.480Z,59.42
2018-06-08T06:39:35.787Z,58.17
2018-06-08T06:42:05.130Z,56.08
2018-06-08T06:44:34.518Z,56.34
2018-06-08T06:47:03.942Z,55.02
2018-06-08T06:49:33.402Z,55.10
2018-06-08T06:52:02.805Z,55.81
2018-06-08T06:54:32.315Z,53.97
2018-06-08T06:57:01.742Z,55.59
2018-06-08T06:59:31.136Z,55.00
2018-06-08T07:02:00.579Z,52.68
2018-06-08T07:04:29.988Z,52.10
2018-06-08T07:06:59.375Z,51.73
2018-06-08T07:09:28.759Z,51.88
2018-06-08T07:11:58.205Z,52.10
2018-06-08T07:14:27.644Z,53.15
2018-06-08T07:16:56.631Z,50.28
2018-06-08T07:19:25.607Z,51.49
2018-06-08T07:21:54.565Z,52.41
2018-06-08T07:24:23.548Z,50.13
2018-06-08T07:26:52.592Z,49.75
2018-06-08T07:29:21.589Z,51.26
2018-06-08T07:31:50.624Z,49.32
2018-06-08T07:34:19.533Z,48.48
2018-06-08T07:36:48.480Z,48.72
2018-06-08T07:39:17.512Z,50.48
2018-06-08T07:41:46.464Z,49.40
2018-06-08T07:44:16.525Z,48.13
2018-06-08T07:46:45.776Z,48.51
2018-06-08T07:49:14.836Z,48.25
2018-06-08T07:51:43.840Z,47.31
2018-06-08T07:54:12.873Z,47.16
2018-06-08T07:56:41.873Z,45.88
2018-06-08T07:59:10.872Z,47.53
2018-06-08T08:01:40.454Z,45.12
2018-06-08T08:04:09.780Z,45.43
2018-06-08T08:06:38.704Z,44.26
2018-06-08T08:09:09.872Z,46.19
2018-06-08T08:11:38.953Z,43.67
2018-06-08T08:14:08.272Z,46.37
2018-06-08T08:16:37.660Z,46.72
2018-06-08T08:19:06.717Z,45.81
2018-06-08T08:21:36.192Z,45.54
2018-06-08T08:24:05.584Z,46.19
2018-06-08T08:26:34.912Z,44.58
2018-06-08T08:29:04.316Z,44.49
2018-06-08T08:31:33.648Z,46.29
2018-06-08T08:34:02.588Z,42.43
2018-06-08T08:36:31.637Z,43.39
2018-06-08T08:39:00.716Z,45.03
2018-06-08T08:41:29.849Z,45.58
2018-06-08T08:43:58.777Z,44.46
2018-06-08T08:46:27.795Z,42.46
2018-06-08T08:48:56.757Z,43.34
2018-06-08T08:51:25.781Z,43.66
2018-06-08T08:53:54.908Z,43.46
2018-06-08T08:56:23.836Z,43.79
2018-06-08T08:58:52.800Z,44.02
2018-06-08T09:01:21.799Z,43.57
2018-06-08T09:03:50.738Z,43.89
2018-06-08T09:06:19.732Z,43.21
2018-06-08T09:08:48.712Z,44.64
2018-06-08T09:11:17.793Z,43.10
2018-06-08T09:13:46.846Z,42.29
2018-06-08T09:16:15.837Z,43.56
2018-06-08T09:18:44.819Z,40.42
2018-06-08T09:21:13.813Z,40.04
2018-06-08T09:23:42.792Z,39.92
2018-06-08T09:26:11.724Z,39.80
2018-06-08T09:28:41.068Z,39.61
2018-06-08T09:31:10.456Z,40.89
2018-06-08T09:33:39.755Z,41.64
2018-06-08T09:36:09.207Z,40.96
2018-06-08T09:38:38.630Z,41.05
2018-06-08T09:41:07.844Z,40.74
2018-06-08T09:43:37.208Z,41.31
2018-06-08T09:46:06.434Z,39.28
2018-06-08T09:48:35.397Z,37.63
2018-06-08T09:51:04.510Z,36.96
2018-06-08T09:53:33.848Z,38.17
2018-06-08T09:56:03.208Z,38.34
2018-06-08T09:58:32.456Z,38.12
2018-06-08T10:01:01.824Z,36.91
2018-06-08T10:03:31.236Z,38.38
2018-06-08T10:06:00.529Z,37.95
2018-06-08T10:08:29.855Z,38.43
2018-06-08T10:10:59.081Z,38.87
2018-06-08T10:13:28.090Z,37.96
2018-06-08T10:15:57.039Z,38.34
2018-06-08T10:18:25.963Z,38.16
2018-06-08T10:20:55.073Z,38.41
2018-06-08T10:23:24.076Z,38.09
2018-06-08T10:25:53.032Z,37.21
2018-06-08T10:28:21.964Z,37.64
2018-06-08T10:30:50.903Z,39.70
2018-06-08T10:33:19.896Z,38.11
2018-06-08T10:35:51.735Z,38.78
2018-06-08T10:38:20.759Z,39.64
2018-06-08T10:40:49.699Z,37.91
2018-06-08T10:43:18.697Z,36.25
2018-06-08T10:45:47.765Z,36.00
2018-06-08T10:48:16.731Z,37.65
2018-06-08T10:50:45.727Z,37.48
2018-06-08T10:53:14.776Z,37.37
2018-06-08T10:55:43.821Z,36.30
2018-06-08T10:58:12.764Z,36.96
2018-06-08T11:00:41.701Z,38.23
2018-06-08T11:03:10.749Z,36.27
2018-06-08T11:05:39.676Z,35.22
2018-06-08T11:08:08.713Z,35.98
2018-06-08T11:10:37.713Z,36.10
2018-06-08T11:13:06.744Z,35.32
2018-06-08T11:15:35.807Z,37.59
2018-06-08T11:18:04.788Z,35.53
2018-06-08T11:20:33.781Z,36.31
2018-06-08T11:23:02.715Z,36.61
2018-06-08T11:25:31.705Z,37.35
2018-06-08T11:28:00.693Z,37.09
2018-06-08T11:30:29.676Z,38.54
2018-06-08T11:32:58.615Z,37.81
2018-06-08T11:35:27.626Z,38.40
2018-06-08T11:37:56.567Z,38.67
2018-06-08T11:40:25.552Z,37.16
2018-06-08T11:42:54.569Z,36.33
2018-06-08T11:45:23.649Z,34.95
2018-06-08T11:47:52.596Z,35.80
2018-06-08T11:50:21.783Z,35.55
2018-06-08T11:52:50.780Z,35.19
2018-06-08T11:55:19.971Z,37.02
2018-06-08T11:57:49.085Z,35.51
2018-06-08T12:00:18.076Z,36.59
2018-06-08T12:02:47.037Z,35.49
2018-06-08T12:05:16.021Z,35.63
2018-06-08T12:07:45.016Z,35.84
2018-06-08T12:10:13.973Z,35.22
2018-06-08T12:12:43.424Z,36.35
2018-06-08T12:15:12.477Z,36.81
2018-06-08T12:17:41.633Z,34.84
2018-06-08T12:20:10.717Z,33.63
2018-06-08T12:22:39.727Z,33.74
2018-06-08T12:25:08.664Z,34.14
2018-06-08T12:27:37.600Z,34.61
2018-06-08T12:30:06.689Z,33.54
2018-06-08T12:32:35.768Z,34.46
2018-06-08T12:35:04.776Z,34.52
2018-06-08T12:37:33.790Z,34.43
2018-06-08T12:40:02.737Z,34.00
2018-06-08T12:42:31.764Z,34.92
2018-06-08T12:45:00.800Z,34.12
2018-06-08T12:47:29.989Z,34.57
2018-06-08T12:49:58.980Z,35.12
2018-06-08T12:52:27.916Z,35.14
2018-06-08T12:54:56.965Z,35.46
2018-06-08T12:57:25.947Z,35.12
2018-06-08T12:59:55.736Z,34.11
2018-06-08T13:02:24.824Z,35.15
2018-06-08T13:04:53.752Z,35.02
2018-06-08T13:07:22.800Z,34.67
2018-06-08T13:09:51.794Z,34.37
2018-06-08T13:12:20.688Z,33.69
2018-06-08T13:14:49.620Z,34.08
2018-06-08T13:17:18.697Z,35.32
2018-06-08T13:19:47.681Z,33.61
2018-06-08T13:22:16.665Z,34.93
2018-06-08T13:24:45.642Z,35.44
2018-06-08T13:27:14.641Z,36.39
2018-06-08T13:29:43.660Z,37.00
2018-06-08T13:32:12.741Z,38.78
2018-06-08T13:34:41.809Z,35.15
2018-06-08T13:37:10.756Z,35.50
2018-06-08T13:39:39.714Z,35.35
2018-06-08T13:42:08.712Z,35.74
2018-06-08T13:44:37.756Z,35.51
2018-06-08T13:47:06.813Z,36.59
2018-06-08T13:49:35.893Z,36.60
2018-06-08T13:52:04.914Z,38.02
2018-06-08T13:54:33.847Z,37.58
2018-06-08T13:57:02.904Z,36.84
2018-06-08T13:59:31.884Z,37.24
2018-06-08T14:02:00.941Z,36.91
2018-06-08T14:04:29.871Z,36.00
2018-06-08T14:06:58.792Z,35.53
2018-06-08T14:09:27.847Z,35.92
2018-06-08T14:11:57.172Z,34.32
2018-06-08T14:14:26.166Z,34.79
2018-06-08T14:16:55.496Z,34.49
2018-06-08T14:19:24.504Z,34.71
2018-06-08T14:21:53.736Z,35.12
2018-06-08T14:24:23.000Z,34.96
2018-06-08T14:26:52.324Z,35.73
2018-06-08T14:29:21.564Z,36.96
2018-06-08T14:31:50.780Z,37.33
2018-06-08T14:34:20.108Z,38.12
2018-06-08T14:36:49.437Z,38.94
2018-06-08T14:39:18.713Z,38.67
2018-06-08T14:41:48.041Z,39.09
2018-06-08T14:44:17.466Z,38.73
2018-06-08T14:46:47.096Z,38.76
2018-06-08T14:49:16.800Z,38.71
2018-06-08T14:51:46.284Z,38.90
2018-06-08T14:54:15.386Z,39.09
2018-06-08T14:56:44.312Z,38.53
2018-06-08T14:59:13.392Z,39.85
2018-06-08T15:01:42.372Z,39.88
2018-06-08T15:04:11.307Z,40.23
2018-06-08T15:06:40.346Z,40.48
2018-06-08T15:09:09.759Z,41.21
2018-06-08T15:11:38.820Z,41.75
2018-06-08T15:14:07.755Z,42.12
2018-06-08T15:16:36.740Z,41.18
2018-06-08T15:19:05.748Z,41.50
2018-06-08T15:21:34.684Z,41.32
2018-06-08T15:24:03.760Z,42.06
2018-06-08T15:26:32.800Z,41.37
2018-06-08T15:29:01.824Z,42.36
2018-06-08T15:31:30.775Z,42.56
2018-06-08T15:33:59.756Z,42.76
2018-06-08T15:36:29.201Z,43.14
2018-06-08T15:38:58.466Z,43.27
2018-06-08T15:41:27.688Z,43.85
2018-06-08T15:43:56.651Z,44.62
2018-06-08T15:46:25.585Z,44.87
2018-06-08T15:48:54.584Z,44.62
2018-06-08T15:51:23.972Z,44.10
2018-06-08T15:53:53.303Z,44.49
2018-06-08T15:56:22.682Z,45.11
2018-06-08T15:58:51.616Z,45.87
2018-06-08T16:01:20.944Z,45.58
2018-06-08T16:03:50.148Z,45.47
2018-06-08T16:06:19.476Z,46.25
2018-06-08T16:08:48.704Z,46.03
2018-06-08T16:11:17.999Z,45.48
2018-06-08T16:13:47.322Z,46.04
2018-06-08T16:16:16.662Z,46.22
2018-06-08T16:18:46.101Z,45.92
2018-06-08T16:21:15.460Z,45.96
2018-06-08T16:23:44.485Z,45.79
2018-06-08T16:26:13.548Z,47.00
2018-06-08T16:28:42.584Z,46.75
2018-06-08T16:31:11.578Z,46.01
2018-06-08T16:33:40.549Z,46.27
2018-06-08T16:36:09.614Z,46.83
2018-06-08T16:38:38.587Z,47.10
2018-06-08T16:41:07.604Z,46.52
2018-06-08T16:43:36.604Z,46.87
2018-06-08T16:46:05.672Z,46.68
2018-06-08T16:48:34.613Z,47.37
2018-06-08T16:51:03.612Z,47.40
2018-06-08T16:53:32.564Z,48.01
2018-06-08T16:56:01.489Z,47.50
2018-06-08T16:58:30.560Z,47.14
2018-06-08T17:00:59.548Z,47.98
2018-06-08T17:03:28.563Z,48.16
2018-06-08T17:05:57.754Z,47.75
2018-06-08T17:08:26.856Z,48.28
2018-06-08T17:10:55.994Z,48.05
2018-06-08T17:13:25.121Z,48.10
2018-06-08T17:15:54.332Z,47.73
2018-06-08T17:18:23.556Z,48.32
2018-06-08T17:20:52.868Z,48.78
2018-06-08T17:23:22.237Z,49.38
2018-06-08T17:25:51.672Z,49.02
2018-06-08T17:28:21.024Z,48.51
2018-06-08T17:30:50.380Z,48.22
2018-06-08T17:33:19.509Z,48.95
2018-06-08T17:35:48.777Z,48.45
2018-06-08T17:38:18.185Z,48.05
2018-06-08T17:40:47.734Z,49.08
2018-06-08T17:43:17.020Z,48.12
2018-06-08T17:45:46.212Z,48.24
2018-06-08T17:48:15.595Z,49.08
2018-06-08T17:50:45.000Z,48.74
2018-06-08T17:53:14.388Z,49.55
2018-06-08T17:55:43.753Z,48.60
2018-06-08T17:58:13.081Z,48.32
2018-06-08T18:00:42.077Z,48.71
2018-06-08T18:03:11.291Z,49.49
2018-06-08T18:05:40.581Z,49.30
2018-06-08T18:08:09.916Z,49.34
2018-06-08T18:10:39.068Z,48.73
2018-06-08T18:13:08.204Z,49.17
2018-06-08T18:15:37.360Z,49.76
2018-06-08T18:18:06.709Z,49.81
2018-06-08T18:20:35.813Z,48.85
2018-06-08T18:23:05.120Z,50.35
2018-06-08T18:25:34.400Z,50.04
2018-06-08T18:28:03.589Z,49.84
2018-06-08T18:30:32.981Z,49.13
2018-06-08T18:33:02.370Z,49.24
2018-06-08T18:35:31.682Z,49.75
2018-06-08T18:38:00.957Z,50.36
2018-06-08T18:40:30.260Z,49.31
2018-06-08T18:42:59.407Z,49.25
2018-06-08T18:45:28.689Z,49.44
2018-06-08T18:47:57.895Z,50.18
2018-06-08T18:50:26.980Z,50.02
2018-06-08T18:52:56.365Z,49.28
2018-06-08T18:55:25.624Z,49.54
2018-06-08T18:57:55.249Z,49.68
2018-06-08T19:00:24.512Z,49.73
2018-06-08T19:02:53.832Z,50.47
2018-06-08T19:05:23.126Z,50.54
2018-06-08T19:07:52.400Z,50.37
2018-06-08T19:10:21.769Z,51.44
2018-06-08T19:12:51.011Z,51.38
2018-06-08T19:15:20.196Z,50.30
2018-06-08T19:17:49.388Z,51.36
2018-06-08T19:20:18.661Z,51.58
2018-06-08T19:22:47.935Z,51.86
2018-06-08T19:25:16.944Z,52.27
2018-06-08T19:27:46.146Z,52.02
2018-06-08T19:30:15.324Z,52.35
2018-06-08T19:32:44.693Z,52.35
2018-06-08T19:35:14.100Z,52.04
2018-06-08T19:37:43.300Z,52.19
2018-06-08T19:40:12.252Z,52.51
2018-06-08T19:42:41.190Z,52.25
2018-06-08T19:45:10.368Z,52.33
2018-06-08T19:47:39.560Z,52.62
2018-06-08T19:50:08.595Z,52.84
2018-06-08T19:52:37.568Z,51.94
2018-06-08T19:55:06.600Z,52.90
2018-06-08T19:57:35.712Z,52.89
2018-06-08T20:00:05.036Z,52.69
2018-06-08T20:02:34.153Z,53.35
2018-06-08T20:05:03.460Z,53.38
2018-06-08T20:07:32.580Z,52.34
2018-06-08T20:10:01.974Z,53.09
2018-06-08T20:12:31.194Z,54.13
2018-06-08T20:15:00.528Z,53.57
2018-06-08T20:17:29.472Z,54.47
2018-06-08T20:19:58.576Z,54.01
2018-06-08T20:22:27.705Z,53.86
2018-06-08T20:24:57.117Z,53.70
2018-06-08T20:27:26.508Z,54.74
2018-06-08T20:29:55.796Z,55.25
2018-06-08T20:32:24.742Z,55.53
2018-06-08T20:34:53.882Z,55.62
2018-06-08T20:37:23.065Z,56.06
2018-06-08T20:39:52.411Z,56.42
2018-06-08T20:42:21.488Z,56.70
2018-06-08T20:44:50.808Z,57.76
2018-06-08T20:47:20.177Z,57.58
2018-06-08T20:49:49.356Z,58.99
2018-06-08T20:52:18.529Z,59.21
2018-06-08T20:54:47.875Z,59.17
2018-06-08T20:57:25.305Z,59.87
2018-06-08T20:59:54.762Z,60.34
2018-06-08T21:02:24.115Z,60.17
2018-06-08T21:04:53.196Z,60.82
2018-06-08T21:07:22.989Z,61.62
2018-06-08T21:09:52.272Z,61.04
2018-06-08T21:12:21.721Z,62.04
2018-06-08T21:14:51.046Z,62.61
2018-06-08T21:17:20.456Z,63.26
2018-06-08T21:19:49.684Z,63.20
2018-06-08T21:22:18.932Z,63.12
2018-06-08T21:24:49.829Z,63.38
2018-06-08T21:27:19.768Z,62.75
2018-06-08T21:29:49.438Z,62.81
2018-06-08T21:32:18.407Z,62.74
2018-06-08T21:34:47.445Z,62.72
2018-06-08T21:37:16.529Z,62.23
2018-06-08T21:39:45.557Z,62.01
2018-06-08T21:42:14.591Z,61.84
2018-06-08T21:44:43.780Z,61.98
2018-06-08T21:47:13.020Z,62.40
2018-06-08T21:49:42.017Z,62.52
2018-06-08T21:52:11.349Z,62.26
2018-06-08T21:54:40.427Z,61.24
2018-06-08T21:57:09.356Z,61.62
2018-06-08T21:59:38.364Z,61.71
2018-06-08T22:02:07.328Z,61.29
2018-06-08T22:04:36.340Z,62.21
2018-06-08T22:07:05.351Z,61.98
2018-06-08T22:09:34.396Z,62.23
2018-06-08T22:12:03.351Z,62.26
2018-06-08T22:14:32.362Z,62.85
2018-06-08T22:17:01.386Z,63.53
2018-06-08T22:19:30.364Z,63.39
2018-06-08T22:21:59.368Z,63.07
2018-06-08T22:24:28.656Z,62.09
2018-06-08T22:26:57.832Z,62.14
2018-06-08T22:29:27.017Z,62.81
2018-06-08T22:31:56.059Z,62.72
2018-06-08T22:34:25.121Z,61.16
2018-06-08T22:36:54.209Z,62.32
2018-06-08T22:39:23.225Z,62.21
2018-06-08T22:41:52.247Z,62.23
2018-06-08T22:44:21.200Z,62.33
2018-06-08T22:46:50.256Z,63.48
2018-06-08T22:49:19.189Z,63.12
2018-06-08T22:51:48.512Z,63.11
2018-06-08T22:54:17.521Z,63.39
2018-06-08T22:56:46.680Z,63.36
2018-06-08T22:59:15.698Z,62.88
2018-06-08T23:01:44.704Z,62.94
2018-06-08T23:04:13.718Z,62.51
2018-06-08T23:06:42.716Z,61.51
2018-06-08T23:09:11.713Z,61.56
2018-06-08T23:11:40.733Z,61.99
2018-06-08T23:14:09.733Z,61.32
2018-06-08T23:16:38.768Z,61.46
2018-06-08T23:19:07.821Z,61.33
2018-06-08T23:21:36.829Z,60.56
2018-06-08T23:24:05.812Z,61.10
2018-06-08T23:26:34.774Z,60.21
2018-06-08T23:29:03.724Z,60.23
2018-06-08T23:31:32.643Z,60.20
2018-06-08T23:34:01.580Z,60.10
2018-06-08T23:36:30.568Z,60.11
2018-06-08T23:38:59.593Z,60.22
2018-06-08T23:41:28.612Z,60.84
2018-06-08T23:43:57.568Z,60.66
2018-06-08T23:46:26.568Z,62.07
2018-06-08T23:48:55.508Z,62.04
2018-06-08T23:51:24.511Z,62.63
2018-06-08T23:53:53.451Z,63.39
2018-06-08T23:56:22.518Z,63.59
2018-06-08T23:58:51.541Z,63.65
